Time;durP1;ratioP1;P1;durP2;ratioP2;P2;SDS_P1;SDS_P2;PMS_P1;PMS_P2;Temp;Humidity;BMP_temperature;BMP_pressure;BME280_temperature;BME280_humidity;BME280_pressure;Samples;Min_cycle;Max_cycle;Signal;HPM_P1;HPM_P2
2023/01/02 00:00:06;;;;;;;113.60;52.83;;;;;;;;;;6270765;28;20009;-75
2023/01/02 00:03:06;;;;;;;100.93;50.87;;;;;;;;;;6263419;28;20024;-75
2023/01/02 00:06:06;;;;;;;113.35;58.90;;;;;;;;;;6251815;28;20033;-75
2023/01/02 00:09:07;;;;;;;127.37;62.17;;;;;;;;;;6270691;28;20452;-75
2023/01/02 00:12:07;;;;;;;118.40;61.47;;;;;;;;;;6251243;28;20473;-75
2023/01/02 00:15:08;;;;;;;115.97;52.92;;;;;;;;;;6270950;28;20024;-75
2023/01/02 00:18:08;;;;;;;96.93;50.97;;;;;;;;;;6245647;28;20416;-75
2023/01/02 00:21:08;;;;;;;117.22;57.58;;;;;;;;;;6268806;28;20430;-75
2023/01/02 00:24:08;;;;;;;109.60;54.87;;;;;;;;;;6262153;28;20025;-75
2023/01/02 00:27:09;;;;;;;118.80;57.93;;;;;;;;;;6242098;28;20613;-75
2023/01/02 00:30:09;;;;;;;111.72;56.00;;;;;;;;;;6249679;28;20103;-75
2023/01/02 00:33:09;;;;;;;114.50;63.80;;;;;;;;;;6248983;28;20024;-76
2023/01/02 00:36:11;;;;;;;112.28;54.60;;;;;;;;;;6249006;28;20075;-74
2023/01/02 00:39:11;;;;;;;107.32;55.13;;;;;;;;;;6268983;28;20060;-75
2023/01/02 00:42:11;;;;;;;160.83;77.20;;;;;;;;;;6268683;28;20032;-75
2023/01/02 00:45:11;;;;;;;152.25;78.43;;;;;;;;;;6248856;28;20039;-75
2023/01/02 00:48:12;;;;;;;149.10;68.45;;;;;;;;;;6268263;28;20040;-76
2023/01/02 00:51:12;;;;;;;131.15;65.10;;;;;;;;;;6266727;28;20047;-75
2023/01/02 00:54:12;;;;;;;115.20;53.73;;;;;;;;;;6268594;28;20035;-75
2023/01/02 00:57:12;;;;;;;118.57;58.08;;;;;;;;;;6249678;28;20036;-75
2023/01/02 01:00:13;;;;;;;114.00;53.47;;;;;;;;;;6250282;28;20397;-75
2023/01/02 01:03:13;;;;;;;115.27;57.40;;;;;;;;;;6267946;28;20017;-75
2023/01/02 01:06:13;;;;;;;132.17;64.47;;;;;;;;;;6267372;28;20029;-75
2023/01/02 01:09:14;;;;;;;171.23;81.43;;;;;;;;;;6250997;28;20078;-75
2023/01/02 01:12:14;;;;;;;151.73;77.93;;;;;;;;;;6249306;28;20017;-76
2023/01/02 01:15:14;;;;;;;140.00;69.90;;;;;;;;;;6266984;28;20090;-75
2023/01/02 01:18:14;;;;;;;100.83;51.50;;;;;;;;;;6269263;28;20674;-75
2023/01/02 01:21:16;;;;;;;111.93;59.33;;;;;;;;;;6269209;28;20447;-75
2023/01/02 01:24:16;;;;;;;111.63;54.58;;;;;;;;;;6268941;28;20017;-75
2023/01/02 01:27:17;;;;;;;118.23;52.63;;;;;;;;;;6268203;28;20080;-75
2023/01/02 01:30:17;;;;;;;145.53;72.77;;;;;;;;;;6250194;28;20522;-75
2023/01/02 01:33:17;;;;;;;146.02;72.20;;;;;;;;;;6265974;28;20025;-75
2023/01/02 01:36:18;;;;;;;139.20;68.32;;;;;;;;;;6267683;28;20532;-75
2023/01/02 01:39:19;;;;;;;141.35;62.97;;;;;;;;;;6247960;28;20472;-75
2023/01/02 01:42:19;;;;;;;126.00;59.40;;;;;;;;;;6249325;28;20023;-75
2023/01/02 01:45:19;;;;;;;122.97;58.23;;;;;;;;;;6249709;28;20036;-76
2023/01/02 01:48:19;;;;;;;119.82;56.00;;;;;;;;;;6269303;28;20033;-75
2023/01/02 01:51:20;;;;;;;114.53;55.07;;;;;;;;;;6269150;28;20509;-75
2023/01/02 01:54:25;;;;;;;102.50;49.30;;;;;;;;;;6268392;28;20472;-75
2023/01/02 01:57:28;;;;;;;94.55;47.10;;;;;;;;;;6250756;28;20116;-75
2023/01/02 02:00:29;;;;;;;102.85;47.78;;;;;;;;;;6268341;28;20025;-76
2023/01/02 02:03:30;;;;;;;102.90;49.93;;;;;;;;;;6268609;28;20677;-75
2023/01/02 02:06:31;;;;;;;106.15;51.67;;;;;;;;;;6267830;28;20095;-75
2023/01/02 02:09:36;;;;;;;97.27;45.37;;;;;;;;;;6267992;28;20036;-76
2023/01/02 02:12:36;;;;;;;98.15;52.80;;;;;;;;;;6245301;28;20029;-75
2023/01/02 02:15:44;;;;;;;98.03;51.45;;;;;;;;;;6268412;28;20370;-75
2023/01/02 02:18:52;;;;;;;87.88;43.35;;;;;;;;;;6269969;28;20029;-75
2023/01/02 02:22:15;;;;;;;101.15;48.92;;;;;;;;;;6270479;28;20021;-75
2023/01/02 02:25:31;;;;;;;121.82;59.25;;;;;;;;;;6271759;28;20024;-76
2023/01/02 02:28:34;;;;;;;115.18;50.78;;;;;;;;;;6270515;28;20056;-75
2023/01/02 02:31:49;;;;;;;118.22;55.17;;;;;;;;;;6272302;28;20035;-75
2023/01/02 02:35:02;;;;;;;118.07;57.25;;;;;;;;;;6248804;28;20021;-75
2023/01/02 02:38:07;;;;;;;105.97;52.28;;;;;;;;;;6273676;28;20329;-75
2023/01/02 02:41:27;;;;;;;105.10;52.83;;;;;;;;;;6272560;28;20017;-75
2023/01/02 02:44:46;;;;;;;100.82;49.20;;;;;;;;;;6270813;28;20866;-75
2023/01/02 02:48:01;;;;;;;103.20;50.17;;;;;;;;;;6261364;28;20116;-75
2023/01/02 02:51:04;;;;;;;94.90;46.63;;;;;;;;;;6272328;28;20024;-75
2023/01/02 02:54:10;;;;;;;122.65;55.45;;;;;;;;;;6253978;28;20021;-76
2023/01/02 02:57:11;;;;;;;102.93;52.13;;;;;;;;;;6249272;28;20029;-75
2023/01/02 03:00:13;;;;;;;107.63;52.08;;;;;;;;;;6236648;28;20440;-75
2023/01/02 03:03:20;;;;;;;100.55;49.50;;;;;;;;;;6271605;28;20097;-75
2023/01/02 03:06:25;;;;;;;86.80;42.83;;;;;;;;;;6268271;28;20021;-75
2023/01/02 03:09:31;;;;;;;85.22;45.25;;;;;;;;;;6269276;28;20088;-75
2023/01/02 03:12:34;;;;;;;97.50;42.88;;;;;;;;;;6271531;28;20021;-75
2023/01/02 03:15:38;;;;;;;91.95;41.53;;;;;;;;;;6254119;28;20370;-73
2023/01/02 03:18:48;;;;;;;111.13;53.50;;;;;;;;;;6253013;28;20029;-74
2023/01/02 03:21:56;;;;;;;100.30;48.53;;;;;;;;;;6272606;28;20096;-74
2023/01/02 03:24:57;;;;;;;108.03;55.13;;;;;;;;;;6271126;28;20055;-74
2023/01/02 03:27:59;;;;;;;112.60;54.17;;;;;;;;;;6271099;28;20021;-74
2023/01/02 03:31:01;;;;;;;127.90;62.22;;;;;;;;;;6271391;28;20025;-74
2023/01/02 03:34:10;;;;;;;115.78;57.03;;;;;;;;;;6270695;28;20017;-74
2023/01/02 03:37:13;;;;;;;111.32;53.88;;;;;;;;;;6271497;28;20021;-74
2023/01/02 03:40:27;;;;;;;106.50;49.10;;;;;;;;;;6272360;28;20021;-74
2023/01/02 03:43:29;;;;;;;99.63;46.45;;;;;;;;;;6272025;28;20017;-74
2023/01/02 03:46:31;;;;;;;90.68;44.30;;;;;;;;;;6254173;28;20013;-74
2023/01/02 03:49:33;;;;;;;120.88;53.63;;;;;;;;;;6246386;28;20476;-74
2023/01/02 03:52:33;;;;;;;97.20;46.72;;;;;;;;;;6270889;28;20044;-75
2023/01/02 03:55:34;;;;;;;99.13;47.23;;;;;;;;;;6271303;28;20593;-76
2023/01/02 03:58:40;;;;;;;84.43;40.00;;;;;;;;;;6271683;28;20496;-74
2023/01/02 04:01:40;;;;;;;90.30;41.05;;;;;;;;;;6271261;28;20017;-74
2023/01/02 04:04:40;;;;;;;84.77;37.67;;;;;;;;;;6266490;28;20051;-74
2023/01/02 04:07:50;;;;;;;66.80;33.70;;;;;;;;;;6265830;28;20068;-74
2023/01/02 04:10:53;;;;;;;71.72;35.20;;;;;;;;;;6269781;28;20028;-74
2023/01/02 04:13:57;;;;;;;83.65;39.55;;;;;;;;;;6252181;28;20017;-74
2023/01/02 04:16:58;;;;;;;103.00;49.38;;;;;;;;;;6253106;28;20061;-75
2023/01/02 04:19:59;;;;;;;95.85;44.38;;;;;;;;;;6271352;28;20017;-74
2023/01/02 04:23:02;;;;;;;83.10;42.60;;;;;;;;;;6247263;28;20101;-74
2023/01/02 04:26:03;;;;;;;103.50;47.58;;;;;;;;;;6275770;28;20096;-74
2023/01/02 04:29:03;;;;;;;76.83;36.97;;;;;;;;;;6268962;28;20473;-74
2023/01/02 04:32:09;;;;;;;87.20;42.87;;;;;;;;;;6252769;28;20025;-75
2023/01/02 04:35:21;;;;;;;87.38;39.50;;;;;;;;;;6250889;28;20024;-73
2023/01/02 04:38:21;;;;;;;78.93;35.15;;;;;;;;;;6265253;28;20079;-74
2023/01/02 04:41:26;;;;;;;79.33;36.63;;;;;;;;;;6270120;28;20013;-74
2023/01/02 04:44:26;;;;;;;73.95;36.47;;;;;;;;;;6257274;28;20460;-74
2023/01/02 04:47:26;;;;;;;73.50;35.35;;;;;;;;;;6252771;28;20013;-75
2023/01/02 04:50:26;;;;;;;70.05;33.58;;;;;;;;;;6269759;28;20021;-73
2023/01/02 04:53:26;;;;;;;71.03;33.20;;;;;;;;;;6270086;28;20438;-74
2023/01/02 04:56:26;;;;;;;71.53;34.03;;;;;;;;;;6269525;28;20032;-74
2023/01/02 04:59:27;;;;;;;69.50;30.63;;;;;;;;;;6269524;28;20048;-73
2023/01/02 05:02:27;;;;;;;60.13;28.53;;;;;;;;;;6269857;28;20009;-74
2023/01/02 05:05:27;;;;;;;63.28;32.10;;;;;;;;;;6249036;28;20509;-74
2023/01/02 05:08:28;;;;;;;65.07;31.33;;;;;;;;;;6270291;28;20076;-75
2023/01/02 05:11:28;;;;;;;60.07;29.57;;;;;;;;;;6252699;28;20059;-74
2023/01/02 05:14:29;;;;;;;65.45;29.33;;;;;;;;;;6270039;28;20025;-74
2023/01/02 05:17:33;;;;;;;55.73;28.63;;;;;;;;;;6270124;28;20091;-74
2023/01/02 05:20:33;;;;;;;62.85;29.70;;;;;;;;;;6269516;28;20024;-74
2023/01/02 05:23:49;;;;;;;63.43;29.43;;;;;;;;;;6245052;28;20469;-74
2023/01/02 05:26:49;;;;;;;75.63;36.30;;;;;;;;;;6262997;28;20040;-74
2023/01/02 05:29:49;;;;;;;61.15;30.23;;;;;;;;;;6262949;28;20056;-74
2023/01/02 05:32:49;;;;;;;66.27;31.57;;;;;;;;;;6251386;28;20021;-74
2023/01/02 05:35:49;;;;;;;66.10;30.90;;;;;;;;;;6273180;28;20048;-74
2023/01/02 05:38:51;;;;;;;58.83;29.13;;;;;;;;;;6249941;28;20132;-75
2023/01/02 05:41:51;;;;;;;63.55;33.03;;;;;;;;;;6269213;28;20086;-74
2023/01/02 05:44:51;;;;;;;72.45;37.58;;;;;;;;;;6247831;28;20017;-74
2023/01/02 05:47:52;;;;;;;83.33;43.77;;;;;;;;;;6267785;28;20032;-74
2023/01/02 05:50:52;;;;;;;91.30;44.13;;;;;;;;;;6272192;28;20488;-74
2023/01/02 05:53:53;;;;;;;110.97;51.67;;;;;;;;;;6255529;28;20021;-75
2023/01/02 05:56:55;;;;;;;107.40;47.40;;;;;;;;;;6254693;28;20017;-75
2023/01/02 05:59:55;;;;;;;100.78;43.22;;;;;;;;;;6256653;28;20578;-74
2023/01/02 06:02:55;;;;;;;94.53;41.60;;;;;;;;;;6255373;28;20013;-74
2023/01/02 06:05:55;;;;;;;109.43;43.23;;;;;;;;;;6254759;28;20049;-74
2023/01/02 06:08:56;;;;;;;91.90;41.50;;;;;;;;;;6273066;28;20100;-74
2023/01/02 06:11:57;;;;;;;89.57;44.85;;;;;;;;;;6272115;28;20112;-75
2023/01/02 06:14:57;;;;;;;109.90;53.27;;;;;;;;;;6255076;28;20017;-74
2023/01/02 06:17:58;;;;;;;63.77;32.23;;;;;;;;;;6256446;28;20171;-75
2023/01/02 06:20:59;;;;;;;91.17;40.87;;;;;;;;;;6272488;28;20013;-74
2023/01/02 06:23:59;;;;;;;86.10;41.27;;;;;;;;;;6248813;28;20071;-74
2023/01/02 06:26:59;;;;;;;77.03;39.43;;;;;;;;;;6256118;28;20028;-75
2023/01/02 06:29:59;;;;;;;73.45;34.50;;;;;;;;;;6252644;28;20725;-74
2023/01/02 06:32:59;;;;;;;67.20;30.97;;;;;;;;;;6271288;28;20036;-75
2023/01/02 06:36:00;;;;;;;80.22;32.90;;;;;;;;;;6270044;28;20024;-74
2023/01/02 06:39:01;;;;;;;49.07;22.37;;;;;;;;;;6252271;28;20092;-74
2023/01/02 06:42:01;;;;;;;70.73;32.90;;;;;;;;;;6268736;28;20491;-74
2023/01/02 06:45:01;;;;;;;153.77;42.15;;;;;;;;;;6269339;28;20103;-74
2023/01/02 06:48:01;;;;;;;142.60;40.93;;;;;;;;;;6270892;28;20032;-74
2023/01/02 06:51:09;;;;;;;150.30;39.80;;;;;;;;;;6244372;28;20017;-75
2023/01/02 06:54:09;;;;;;;100.15;34.33;;;;;;;;;;6271422;28;20066;-74
2023/01/02 06:57:09;;;;;;;114.10;37.63;;;;;;;;;;6253919;28;20020;-73
2023/01/02 07:00:10;;;;;;;133.63;44.17;;;;;;;;;;6272782;28;20009;-74
2023/01/02 07:03:10;;;;;;;131.47;46.27;;;;;;;;;;6271077;28;20049;-74
2023/01/02 07:06:11;;;;;;;125.25;43.63;;;;;;;;;;6266387;28;20170;-74
2023/01/02 07:09:12;;;;;;;89.53;41.13;;;;;;;;;;6269111;28;20025;-74
2023/01/02 07:12:12;;;;;;;96.72;39.17;;;;;;;;;;6271682;28;20020;-74
2023/01/02 07:15:12;;;;;;;82.57;39.90;;;;;;;;;;6271244;28;20047;-72
2023/01/02 07:18:12;;;;;;;95.33;42.70;;;;;;;;;;6271809;28;20111;-72
2023/01/02 07:21:13;;;;;;;265.13;75.43;;;;;;;;;;6252737;28;20017;-72
2023/01/02 07:24:16;;;;;;;179.23;59.60;;;;;;;;;;6271602;28;20385;-72
2023/01/02 07:27:17;;;;;;;105.93;48.38;;;;;;;;;;6271505;28;20016;-73
2023/01/02 07:30:17;;;;;;;99.37;43.10;;;;;;;;;;6254060;28;20012;-74
2023/01/02 07:33:17;;;;;;;77.80;39.77;;;;;;;;;;6271451;28;20070;-73
2023/01/02 07:36:18;;;;;;;97.03;47.97;;;;;;;;;;6266965;28;20028;-74
2023/01/02 07:39:18;;;;;;;92.70;44.07;;;;;;;;;;6271328;28;20081;-73
2023/01/02 07:42:18;;;;;;;93.55;45.35;;;;;;;;;;6271605;28;20012;-73
2023/01/02 07:45:18;;;;;;;82.90;42.70;;;;;;;;;;6250744;28;20104;-75
2023/01/02 07:48:19;;;;;;;83.57;46.33;;;;;;;;;;6270225;28;20025;-73
2023/01/02 07:51:19;;;;;;;80.17;44.27;;;;;;;;;;6267638;28;20044;-73
2023/01/02 07:54:19;;;;;;;80.07;46.97;;;;;;;;;;6249461;28;20059;-73
2023/01/02 07:57:19;;;;;;;87.10;47.90;;;;;;;;;;6268404;28;20017;-74
2023/01/02 08:00:20;;;;;;;98.85;53.55;;;;;;;;;;6269368;28;20439;-73
2023/01/02 08:03:20;;;;;;;87.90;50.60;;;;;;;;;;6268842;28;20374;-73
2023/01/02 08:06:20;;;;;;;71.17;40.50;;;;;;;;;;6246369;28;20016;-74
2023/01/02 08:09:20;;;;;;;81.43;41.58;;;;;;;;;;6269464;28;20043;-74
2023/01/02 08:12:21;;;;;;;76.38;37.53;;;;;;;;;;6270272;28;20020;-74
2023/01/02 08:15:21;;;;;;;74.97;42.20;;;;;;;;;;6268752;28;20029;-74
2023/01/02 08:18:21;;;;;;;86.93;45.77;;;;;;;;;;6248662;28;20111;-74
2023/01/02 08:21:22;;;;;;;88.15;44.58;;;;;;;;;;6270242;28;20025;-74
2023/01/02 08:24:23;;;;;;;79.00;45.70;;;;;;;;;;6270443;28;20020;-75
2023/01/02 08:27:23;;;;;;;86.83;45.17;;;;;;;;;;6272010;28;20055;-75
2023/01/02 08:30:23;;;;;;;70.13;38.60;;;;;;;;;;6270864;28;20013;-74
2023/01/02 08:33:23;;;;;;;66.35;37.70;;;;;;;;;;6252599;28;20059;-75
2023/01/02 08:36:23;;;;;;;69.70;35.75;;;;;;;;;;6245678;28;20039;-75
2023/01/02 08:39:23;;;;;;;68.43;37.60;;;;;;;;;;6269218;28;20021;-74
2023/01/02 08:42:24;;;;;;;62.70;36.27;;;;;;;;;;6270068;28;20037;-75
2023/01/02 08:45:24;;;;;;;63.00;35.57;;;;;;;;;;6251617;28;20055;-74
2023/01/02 08:48:24;;;;;;;55.40;34.20;;;;;;;;;;6270059;28;20087;-74
2023/01/02 08:51:24;;;;;;;57.30;35.43;;;;;;;;;;6269046;28;20016;-74
2023/01/02 08:54:25;;;;;;;61.87;30.47;;;;;;;;;;6266618;28;20040;-74
2023/01/02 08:57:25;;;;;;;60.07;37.60;;;;;;;;;;6276154;28;20032;-74
2023/01/02 09:00:25;;;;;;;50.57;33.67;;;;;;;;;;6273102;28;20017;-74
2023/01/02 09:03:25;;;;;;;55.93;34.80;;;;;;;;;;6275865;28;20490;-74
2023/01/02 09:06:26;;;;;;;54.25;31.23;;;;;;;;;;6268388;28;20027;-75
2023/01/02 09:09:26;;;;;;;47.47;29.77;;;;;;;;;;6270933;28;20118;-76
2023/01/02 09:12:27;;;;;;;54.73;31.10;;;;;;;;;;6274893;28;20424;-75
2023/01/02 09:15:27;;;;;;;55.80;31.63;;;;;;;;;;6272013;28;20032;-74
2023/01/02 09:18:27;;;;;;;54.15;31.83;;;;;;;;;;6269083;28;20038;-74
2023/01/02 09:21:27;;;;;;;54.47;27.98;;;;;;;;;;6272898;28;20267;-76
2023/01/02 09:24:28;;;;;;;43.73;27.93;;;;;;;;;;6271514;28;20092;-74
2023/01/02 09:27:28;;;;;;;50.27;30.47;;;;;;;;;;6270830;28;20036;-74
2023/01/02 09:30:28;;;;;;;49.53;34.07;;;;;;;;;;6257973;28;20028;-74
2023/01/02 09:33:28;;;;;;;53.50;31.05;;;;;;;;;;6265025;28;20017;-74
2023/01/02 09:36:28;;;;;;;57.53;36.90;;;;;;;;;;6273308;28;20477;-74
2023/01/02 09:39:28;;;;;;;139.63;101.97;;;;;;;;;;6268931;28;20025;-74
2023/01/02 09:42:30;;;;;;;124.28;87.32;;;;;;;;;;6270296;28;20087;-74
2023/01/02 09:45:30;;;;;;;128.70;90.20;;;;;;;;;;6271348;28;20017;-74
2023/01/02 09:48:32;;;;;;;115.63;76.20;;;;;;;;;;6270221;28;20400;-75
2023/01/02 09:51:32;;;;;;;107.78;70.53;;;;;;;;;;6267770;28;20060;-74
2023/01/02 09:54:32;;;;;;;97.67;68.00;;;;;;;;;;6271768;28;20029;-74
2023/01/02 09:57:40;;;;;;;99.73;68.00;;;;;;;;;;6272599;28;20021;-74
2023/01/02 10:00:41;;;;;;;82.40;59.47;;;;;;;;;;6267737;28;20384;-74
2023/01/02 10:04:00;;;;;;;71.40;47.92;;;;;;;;;;6270148;28;20028;-74
2023/01/02 10:07:17;;;;;;;58.40;37.35;;;;;;;;;;6270637;28;20012;-75
2023/01/02 10:10:21;;;;;;;62.67;41.30;;;;;;;;;;6270060;28;20079;-74
2023/01/02 10:13:32;;;;;;;65.03;39.65;;;;;;;;;;6266888;28;20517;-74
2023/01/02 10:16:36;;;;;;;57.05;38.15;;;;;;;;;;6268867;28;20136;-74
2023/01/02 10:19:41;;;;;;;54.45;35.72;;;;;;;;;;6265704;28;20519;-74
2023/01/02 10:22:44;;;;;;;50.10;34.90;;;;;;;;;;6267333;28;20074;-75
2023/01/02 10:25:47;;;;;;;52.95;35.08;;;;;;;;;;6268196;28;20143;-74
2023/01/02 10:28:56;;;;;;;49.95;34.22;;;;;;;;;;6265823;28;20071;-74
2023/01/02 10:32:03;;;;;;;53.10;36.20;;;;;;;;;;6268582;28;20060;-75
2023/01/02 10:35:06;;;;;;;51.33;33.40;;;;;;;;;;6271925;28;20046;-74
2023/01/02 10:38:09;;;;;;;55.45;35.70;;;;;;;;;;6271657;28;20070;-74
2023/01/02 10:41:10;;;;;;;43.72;31.52;;;;;;;;;;6254147;28;20047;-74
2023/01/02 10:44:13;;;;;;;54.20;34.03;;;;;;;;;;6252443;28;20029;-74
2023/01/02 10:47:23;;;;;;;62.40;42.65;;;;;;;;;;6270904;28;20032;-74
2023/01/02 10:50:26;;;;;;;39.97;27.58;;;;;;;;;;6272560;28;20035;-75
2023/01/02 10:53:31;;;;;;;44.70;27.63;;;;;;;;;;6272695;28;20029;-74
2023/01/02 10:56:33;;;;;;;39.55;23.55;;;;;;;;;;6272750;28;20071;-74
2023/01/02 10:59:34;;;;;;;35.13;20.77;;;;;;;;;;6274056;28;20741;-74
2023/01/02 11:02:38;;;;;;;33.13;21.27;;;;;;;;;;6272453;28;20017;-74
2023/01/02 11:05:46;;;;;;;34.97;21.95;;;;;;;;;;6270587;28;20036;-74
2023/01/02 11:08:57;;;;;;;35.15;20.27;;;;;;;;;;6274118;28;20033;-74
2023/01/02 11:12:00;;;;;;;31.55;20.70;;;;;;;;;;6273313;28;20456;-74
2023/01/02 11:15:12;;;;;;;33.38;21.27;;;;;;;;;;6269040;28;20393;-74
2023/01/02 11:18:17;;;;;;;30.23;20.52;;;;;;;;;;6268833;28;20045;-74
2023/01/02 11:21:27;;;;;;;33.15;20.30;;;;;;;;;;6269126;28;20029;-74
2023/01/02 11:24:28;;;;;;;34.08;20.25;;;;;;;;;;6266991;28;20017;-74
2023/01/02 11:27:30;;;;;;;31.83;17.45;;;;;;;;;;6270325;28;20108;-74
2023/01/02 11:30:44;;;;;;;29.60;18.33;;;;;;;;;;6263940;28;20025;-74
2023/01/02 11:33:45;;;;;;;33.72;20.92;;;;;;;;;;6268811;28;20269;-74
2023/01/02 11:36:45;;;;;;;29.73;19.17;;;;;;;;;;6249885;28;20035;-74
2023/01/02 11:40:05;;;;;;;37.50;20.30;;;;;;;;;;6266289;28;20473;-74
2023/01/02 11:46:33;;;;;;;35.85;21.80;;;;;;;;;;6269271;28;20311;-74
2023/01/02 11:49:37;;;;;;;34.92;19.80;;;;;;;;;;6269768;28;20070;-74
2023/01/02 11:52:48;;;;;;;32.30;20.30;;;;;;;;;;6268602;28;20013;-74
2023/01/02 11:55:57;;;;;;;36.83;22.05;;;;;;;;;;6269649;28;20017;-73
2023/01/02 11:59:12;;;;;;;33.35;22.60;;;;;;;;;;6266635;28;20028;-74
2023/01/02 12:02:12;;;;;;;35.88;23.58;;;;;;;;;;6247695;28;20025;-74
2023/01/02 12:05:14;;;;;;;33.17;22.42;;;;;;;;;;6268034;28;20047;-74
2023/01/02 12:08:26;;;;;;;41.05;23.48;;;;;;;;;;6266634;28;20477;-75
2023/01/02 12:11:45;;;;;;;43.33;26.75;;;;;;;;;;6249503;28;20063;-74
2023/01/02 12:14:45;;;;;;;41.92;24.83;;;;;;;;;;6268853;28;20128;-73
2023/01/02 12:17:50;;;;;;;40.47;25.70;;;;;;;;;;6269708;28;20029;-74
2023/01/02 12:20:53;;;;;;;38.92;25.58;;;;;;;;;;6268019;28;20023;-74
2023/01/02 12:24:05;;;;;;;42.50;25.92;;;;;;;;;;6246647;28;20044;-74
2023/01/02 12:27:11;;;;;;;44.10;28.95;;;;;;;;;;6263769;28;20467;-74
2023/01/02 12:30:14;;;;;;;42.30;26.50;;;;;;;;;;6269123;28;20039;-74
2023/01/02 12:33:50;;;;;;;40.28;25.52;;;;;;;;;;6267309;28;20091;-74
2023/01/02 12:36:57;;;;;;;41.53;25.52;;;;;;;;;;6170084;28;20075;-74
2023/01/02 12:40:00;;;;;;;36.17;23.98;;;;;;;;;;6270150;28;20404;-74
2023/01/02 12:43:01;;;;;;;36.75;23.92;;;;;;;;;;6266631;28;20086;-74
2023/01/02 12:46:13;;;;;;;38.65;25.73;;;;;;;;;;6268770;28;20059;-74
2023/01/02 12:49:33;;;;;;;43.05;25.98;;;;;;;;;;6250577;28;20099;-74
2023/01/02 12:53:00;;;;;;;41.55;25.55;;;;;;;;;;6264141;28;20352;-74
2023/01/02 12:56:06;;;;;;;44.08;29.83;;;;;;;;;;6261071;28;20029;-74
2023/01/02 12:59:21;;;;;;;49.33;29.00;;;;;;;;;;6262045;28;20031;-74
2023/01/02 13:02:30;;;;;;;39.88;27.48;;;;;;;;;;6261425;28;20023;-74
2023/01/02 13:05:34;;;;;;;46.35;28.05;;;;;;;;;;6257715;28;20018;-74
2023/01/02 13:08:42;;;;;;;45.50;27.48;;;;;;;;;;6267656;28;20150;-74
2023/01/02 13:11:45;;;;;;;42.38;27.75;;;;;;;;;;6247848;28;20024;-74
2023/01/02 13:14:49;;;;;;;41.35;26.58;;;;;;;;;;6266515;28;20020;-74
2023/01/02 13:17:49;;;;;;;48.22;27.90;;;;;;;;;;6249448;28;20122;-73
2023/01/02 13:20:57;;;;;;;39.42;25.63;;;;;;;;;;6247084;28;20057;-73
2023/01/02 13:23:58;;;;;;;42.42;26.50;;;;;;;;;;6264741;28;20017;-73
2023/01/02 13:26:58;;;;;;;45.08;26.52;;;;;;;;;;6267177;28;20078;-73
2023/01/02 13:30:00;;;;;;;49.77;28.00;;;;;;;;;;6260232;28;20035;-74
2023/01/02 13:33:02;;;;;;;44.40;27.85;;;;;;;;;;6263644;28;20025;-74
2023/01/02 13:36:13;;;;;;;33.67;22.70;;;;;;;;;;6264991;28;20102;-73
2023/01/02 13:39:32;;;;;;;33.33;17.85;;;;;;;;;;6265747;28;20036;-74
2023/01/02 13:45:54;;;;;;;22.98;10.98;;;;;;;;;;6267962;28;20017;-73
2023/01/02 13:48:55;;;;;;;17.63;9.40;;;;;;;;;;6264444;28;20083;-74
2023/01/02 13:51:58;;;;;;;17.70;9.55;;;;;;;;;;6249162;28;20029;-73
2023/01/02 13:55:29;;;;;;;14.77;7.07;;;;;;;;;;6262608;28;20476;-73
2023/01/02 13:58:42;;;;;;;19.00;7.75;;;;;;;;;;6264088;28;20098;-73
2023/01/02 14:02:00;;;;;;;20.75;8.75;;;;;;;;;;6269614;28;20017;-74
2023/01/02 14:05:20;;;;;;;18.90;9.95;;;;;;;;;;6265118;28;20017;-74
2023/01/02 14:08:25;;;;;;;24.15;12.10;;;;;;;;;;6271625;28;20463;-74
2023/01/02 14:11:32;;;;;;;18.67;11.18;;;;;;;;;;6271013;28;20386;-74
2023/01/02 14:14:41;;;;;;;17.10;10.02;;;;;;;;;;6268763;28;20021;-73
2023/01/02 14:18:00;;;;;;;20.50;10.68;;;;;;;;;;6272535;28;20044;-73
2023/01/02 14:21:01;;;;;;;20.80;10.43;;;;;;;;;;6278804;28;20492;-74
2023/01/02 14:24:01;;;;;;;21.20;11.17;;;;;;;;;;6274677;28;20025;-74
2023/01/02 14:27:06;;;;;;;25.13;11.60;;;;;;;;;;6279912;28;20017;-73
2023/01/02 14:30:10;;;;;;;24.30;15.93;;;;;;;;;;6275725;28;20554;-73
2023/01/02 14:33:15;;;;;;;28.25;14.57;;;;;;;;;;6273636;28;20019;-73
2023/01/02 14:36:15;;;;;;;26.55;13.77;;;;;;;;;;6275047;28;20479;-74
2023/01/02 14:39:22;;;;;;;32.17;15.87;;;;;;;;;;6254562;28;20062;-73
2023/01/02 14:45:51;;;;;;;31.45;14.18;;;;;;;;;;6272886;28;20163;-72
2023/01/02 14:48:51;;;;;;;22.00;12.45;;;;;;;;;;6254975;28;20029;-73
2023/01/02 14:51:57;;;;;;;29.57;13.70;;;;;;;;;;6275304;28;20017;-73
2023/01/02 14:55:05;;;;;;;29.60;13.20;;;;;;;;;;6272155;28;20021;-74
2023/01/02 14:58:11;;;;;;;27.83;12.98;;;;;;;;;;6271633;28;20392;-74
2023/01/02 15:01:13;;;;;;;36.90;19.70;;;;;;;;;;6255348;28;20028;-73
2023/01/02 15:04:22;;;;;;;32.25;20.33;;;;;;;;;;6266756;28;20013;-74
2023/01/02 15:07:31;;;;;;;34.13;21.95;;;;;;;;;;6275894;28;20023;-73
2023/01/02 15:10:32;;;;;;;36.28;20.17;;;;;;;;;;6269768;28;20032;-73
2023/01/02 15:13:32;;;;;;;33.13;21.03;;;;;;;;;;6269001;28;20427;-74
2023/01/02 15:16:36;;;;;;;33.20;20.80;;;;;;;;;;6270333;28;20028;-74
2023/01/02 15:19:41;;;;;;;46.60;24.63;;;;;;;;;;6276865;28;20037;-73
2023/01/02 15:22:42;;;;;;;53.92;30.50;;;;;;;;;;6270229;28;20017;-73
2023/01/02 15:25:42;;;;;;;47.37;27.13;;;;;;;;;;6270757;28;20377;-72
2023/01/02 15:28:42;;;;;;;46.23;26.57;;;;;;;;;;6269902;28;20016;-73
2023/01/02 15:31:49;;;;;;;44.83;30.45;;;;;;;;;;6268971;28;20052;-73
2023/01/02 15:34:49;;;;;;;74.45;41.38;;;;;;;;;;6249897;28;20508;-73
2023/01/02 15:37:50;;;;;;;70.93;41.70;;;;;;;;;;6269295;28;20029;-73
2023/01/02 15:40:50;;;;;;;64.43;36.23;;;;;;;;;;6269662;28;20021;-73
2023/01/02 15:47:17;;;;;;;79.53;46.45;;;;;;;;;;6269698;28;20036;-72
2023/01/02 15:50:19;;;;;;;127.50;73.60;;;;;;;;;;6250835;28;20374;-73
2023/01/02 15:53:25;;;;;;;121.65;75.35;;;;;;;;;;6271478;28;20017;-73
2023/01/02 15:56:30;;;;;;;99.53;52.55;;;;;;;;;;6267571;28;20020;-73
2023/01/02 15:59:35;;;;;;;100.78;56.85;;;;;;;;;;6267914;28;20493;-73
2023/01/02 16:02:44;;;;;;;97.50;52.72;;;;;;;;;;6269298;28;20100;-73
2023/01/02 16:05:53;;;;;;;65.18;37.88;;;;;;;;;;6268948;28;20020;-73
2023/01/02 16:08:56;;;;;;;63.67;37.67;;;;;;;;;;6268002;28;20021;-73
2023/01/02 16:11:58;;;;;;;55.83;29.98;;;;;;;;;;6251768;28;20393;-72
2023/01/02 16:14:59;;;;;;;47.60;25.02;;;;;;;;;;6266472;28;20586;-73
2023/01/02 16:18:00;;;;;;;38.43;22.33;;;;;;;;;;6261960;28;20053;-73
2023/01/02 16:21:00;;;;;;;39.90;21.15;;;;;;;;;;6249166;28;20895;-73
2023/01/02 16:24:01;;;;;;;35.97;23.13;;;;;;;;;;6269457;28;20013;-73
2023/01/02 16:27:03;;;;;;;39.40;23.27;;;;;;;;;;6269639;28;20014;-73
2023/01/02 16:30:21;;;;;;;42.95;25.48;;;;;;;;;;6269295;28;20020;-73
2023/01/02 16:33:25;;;;;;;52.30;27.08;;;;;;;;;;6257411;28;20442;-74
2023/01/02 16:36:27;;;;;;;48.00;30.40;;;;;;;;;;6269515;28;20385;-73
2023/01/02 16:39:42;;;;;;;78.70;47.58;;;;;;;;;;6272101;28;20029;-73
2023/01/02 16:42:43;;;;;;;84.97;49.00;;;;;;;;;;6245223;28;20382;-73
2023/01/02 16:45:44;;;;;;;60.47;34.60;;;;;;;;;;6248974;28;20052;-73
2023/01/02 16:48:44;;;;;;;71.80;39.35;;;;;;;;;;6270353;28;20500;-73
2023/01/02 16:51:46;;;;;;;63.37;36.83;;;;;;;;;;6263398;28;20121;-73
2023/01/02 16:54:46;;;;;;;63.25;36.85;;;;;;;;;;6263930;28;20112;-73
2023/01/02 16:57:47;;;;;;;67.45;40.80;;;;;;;;;;6249563;28;20066;-74
2023/01/02 17:00:48;;;;;;;73.07;44.30;;;;;;;;;;6267679;28;20396;-73
2023/01/02 17:03:48;;;;;;;82.73;42.63;;;;;;;;;;6250282;28;20056;-73
2023/01/02 17:06:48;;;;;;;74.57;40.37;;;;;;;;;;6244009;28;20032;-73
2023/01/02 17:09:48;;;;;;;59.27;36.00;;;;;;;;;;6269351;28;20570;-73
2023/01/02 17:12:49;;;;;;;56.63;34.87;;;;;;;;;;6267328;28;20543;-73
2023/01/02 17:15:49;;;;;;;57.47;33.17;;;;;;;;;;6263166;28;20104;-73
2023/01/02 17:18:49;;;;;;;50.00;29.90;;;;;;;;;;6260751;28;20037;-73
2023/01/02 17:21:50;;;;;;;45.55;27.13;;;;;;;;;;6261657;28;20013;-73
2023/01/02 17:24:50;;;;;;;40.80;25.43;;;;;;;;;;6244000;28;20021;-73
2023/01/02 17:27:50;;;;;;;42.60;24.42;;;;;;;;;;6267426;28;20025;-73
2023/01/02 17:30:50;;;;;;;39.80;25.57;;;;;;;;;;6263492;28;20516;-73
2023/01/02 17:33:51;;;;;;;46.00;27.37;;;;;;;;;;6245348;28;20492;-73
2023/01/02 17:36:51;;;;;;;48.07;30.10;;;;;;;;;;6263954;28;20024;-73
2023/01/02 17:39:52;;;;;;;51.33;29.07;;;;;;;;;;6249340;28;20021;-72
2023/01/02 17:42:52;;;;;;;52.57;31.77;;;;;;;;;;6267484;28;20013;-72
2023/01/02 17:45:53;;;;;;;50.83;30.10;;;;;;;;;;6268661;28;20025;-73
2023/01/02 17:48:53;;;;;;;54.33;31.20;;;;;;;;;;6258555;28;20100;-73
2023/01/02 17:51:53;;;;;;;50.83;29.13;;;;;;;;;;6265734;28;20543;-72
2023/01/02 17:54:54;;;;;;;44.03;28.03;;;;;;;;;;6270030;28;20119;-72